航空気象通報

ウインドサーファーのための航空気象通報による風予報です。

8/31-9/2の航空気象通報

2015年08月31日 21時27分43秒 | TAF
羽田空港
TAF RJTT 311109Z 3112/0118 05005KT 9999 FEW006 BKN012
TEMPO 3118/3122 FEW005 BKN008
BECMG 3122/3124 12008KT
BECMG 0106/0109 19016KT
日本時間31日21時-1日07時:050度から5ノットの風
07-09時:風が変化
09-15時:120度から8ノットの風
15-18時:風が変化
18時-2日03時:190度から16ノットの風


静岡空港
TAF RJNS 311105Z 3112/0118 04004KT 9999 FEW008 BKN012
TEMPO 3112/3121 FEW003 BKN005
TEMPO 0100/0103 3000 SHRA BR FEW003 BKN005
BECMG 0103/0106 16010KT
日本時間31日21時-1日12時:0'0度から4ノットの風
12-15時:風が変化
15時-2日03時:160度から10ノットの風

但し、1日09-12時の間:ときどき

福岡空港
TAF RJFF 311107Z 3112/0118 14009KT 8000 -SHRA FEW010 SCT020 BKN030
TEMPO 3112/3118 4000 SHRA BR
TEMPO 3118/3124 3000 TSRA BR FEW005 BKN008 BKN010 FEW030CB
TEMPO 0100/0103 4000 SHRA BR
BECMG 0112/0115 32006KT
日本時間31日21時-1日21時:140度から9ノットの風
21-24時:風が変化
2日00-03時:320度から6ノットの風

但し、1日03-09時の間:ときどき

那覇空港
TAF ROAH 311110Z 3112/0118 20010KT 9999 FEW015 SCT025
TEMPO 0106/0109 4000 SHRA
日本時間31日21時-2日03時:200度から10ノットの風

但し、1日15-18時の間:ときどき

石垣空港
TAF ROIG 311112Z 3112/0118 23003KT 9999 FEW010 BKN020
TEMPO 3112/3114 3000 TSRA FEW010 BKN020 SCT025CB
日本時間31日21時-2日03時:230度から3ノットの風

但し、31日21-23時の間:ときどき

マウイのカフルイ空港
PHOG 311123Z 3112/0112 35006KT P6SM SCT025 BKN200
FM312100 02012KT P6SM SCT025
FM010400 03008KT P6SM SCT025 AMD LTD TO VIS AND WIND TIL 311600
ハワイ時間31日02-11時:350度から6ノットの風

11-18時:020度から12ノットの風
18時-1日02時:030度から8ノットの風


サイパン空港
TAF PGSN 311120Z 3112/0112 VRB06KT P6SM VCSH FEW020
マリアナ時間31日22時-1日22時:風向不定6ノットの風
コメント
この記事をはてなブックマークに追加

8/30-9/1の航空気象通報

2015年08月31日 00時10分57秒 | TAF

羽田空港
TAF RJTT 301106Z 3012/3118 36008KT 8000 FEW005 BKN008
TEMPO 3012/3018 FEW003 BKN005
BECMG 3022/3024 FEW008 BKN015
BECMG 3100/3103 07010KT
日本時間30日21時-21日09時:360度から8ノットの風
09-12時:風が変化
12時-1日03時:070度から10ノットの風


静岡空港
TAF RJNS 301105Z 3012/3118 26006KT 8000 FEW008 BKN012
TEMPO 3014/3021 FEW005 BKN008
日本時間30日21時-1日03時:260度から6ノットの風

福岡空港
TAF RJFF 301108Z 3012/3118 12005KT 7000 -SHRA FEW010 SCT015 BKN020
TEMPO 3012/3015 3000 SHRA BR
TEMPO 3018/3024 1500 +SHRA BR FEW005 BKN008 BKN015
TEMPO 3100/3106 2000 +SHRA BR FEW005 BKN008 BKN015
日本時間30日21時-1日03時:120度から5ノットの風

那覇空港
TAF ROAH 301106Z 3012/3118 18010KT 9999 FEW015 SCT030
日本時間30日21時-1日03時:180度から10ノットの風

石垣空港
TAF ROIG 301109Z 3012/3118 20010KT 9999 FEW015 BKN025
BECMG 3103/3106 06008KT
TEMPO 3103/3109 3000 SHRA FEW008 BKN015 FEW020CB
BECMG 3109/3112 23005KT
日本時間30日21時-31日18時:200度から10ノットの風
18-21時:風が変化
21時-1日03時:230度から5ノットの風

マウイのカフルイ空港
PHOG 301120Z 3012/3112 05008KT P6SM SCT050
FM302100 04018G28KT P6SM VCSH SCT025 BKN050
FM310400 05012G22KT P6SM VCSH SCT025 BKN050
FM310700 05008KT P6SM SCT050 AMD LTD TO VIS AND WIND TIL 301600
ハワイ時間30日02-11時:050から8ノットの風

11-18時:040度から18ノット、突風28ノット
18-21時:050度から12ノット、突風22ノット

21時-31日02時:050度から8ノットの風

サイパン空港
TAF PGSN 301120Z 3012/3112 VRB06KT P6SM VCSH FEW020
マリアナ時間19日22時-20日22時:290度から13ノットの風

コメント
この記事をはてなブックマークに追加

8/29-8/31の航空気象通報

2015年08月29日 21時52分06秒 | TAF

羽田空港
TAF RJTT 291105Z 2912/3018 36007KT 8000 FEW008 BKN012
BECMG 2913/2915 FEW005 BKN008
TEMPO 2918/2924 FEW003 BKN005
BECMG 3000/3003 FEW010 BKN025
BECMG 3006/3009 19016KT
BECMG 3015/3018 32005KT
日本時間29日21時-30日15時:360度から7ノットの風
15-18時:風が変化
18-24時:190度から16ノットの風
31日00-03時:風が変化
03時:320度から5ノットの風

静岡空港
TAF RJNS 291105Z 2912/3018 34004KT 9999 FEW008 BKN015
TEMPO 2921/2924 4000 -SHRA BR FEW005 BKN008
BECMG 3000/3003 16006KT
TEMPO 3000/3003 3000 SHRA BR FEW002 BKN005
TEMPO 3006/3009 3000 SHRA BR FEW002 BKN005
BECMG 3009/3012 26008KT
日本時間29日21時-30日09時:340度から4ノットの風
09-12時:風が変化
12-18時:160度から6ノットの風
18-21時:風が変化
21時-31日03時:260度から8ノットの風

但し、30日06-18時の間:ときどき

福岡空港
TAF RJFF 291117Z 2912/3018 12003KT 9999 FEW015 SCT045
TEMPO 3000/3006 4000 -SHRA BR
BECMG 3003/3006 32007KT
BECMG 3012/3015 14005KT
日本時間29日21時-30日12時:150度から3ノットの風
12-15時:風が変化
15-21時:320度から7ノットの風
21-24時:風が変化
31日00-03時:140度から5ノットの風

但し、30日09-15時の間:ときどき

那覇空港
TAF ROAH 291106Z 2912/3018 19007KT 9999 FEW015
日本時間29日21時-31日03時:190度から7ノットの風

石垣空港
TAF ROIG 291108Z 2912/3018 19011KT 9999 FEW015 SCT035
日本時間29日21時-31日03時:190度から11ノットの風

マウイのカフルイ空港
PHOG 291140Z 2912/3012 06005KT P6SM FEW030 SCT045
FM292000 04017G23KT P6SM FEW030 SCT045
FM300500 05010KT P6SM FEW030 SCT045 AMD LTD TO VIS AND WIND TIL 291600
ハワイ時間29日02-10時:060度から5ノットの風
10-19時:040度から17ノット、突風23ノット
19時-30日02時:050度から10ノットの風

サイパン空港
TAF PGSN 291123Z 2912/3012 VRB05KT P6SM VCSH FEW018 SCT050
マリアナ時間29日22時-30日22時:風向不定5ノットの風

コメント
この記事をはてなブックマークに追加

8/26-8/28の航空気象通報

2015年08月26日 21時19分10秒 | TAF

羽田空港
TAF RJTT 261105Z 2612/2718 34010KT 9999 FEW005 BKN008
TEMPO 2615/2622 4000 BR
BECMG 2622/2624 FEW010 BKN015
BECMG 2700/2703 08010KT
BECMG 2709/2712 04010KT
日本時間26日21時-27日09時:340度から10ノットの風
09-12時:風が変化
12-18時:080度から10ノットの風
18-21時:風が変化
21時-28日03時:040度から10ノットの風

静岡空港
TAF RJNS 261113Z 2612/2718 15005KT 8000 FEW006 BKN010
BECMG 2613/2615 35004KT
TEMPO 2614/2621 FEW005 BKN008
BECMG 2622/2624 14008KT
BECMG 2712/2715 35004KT
日本時間26日21-22時:150度から5ノットの風
22-24時:風が変化
27日00-07時:350度から4ノットの風
07-09時:風が変化
09-21時:140度から8ノットの風
21-24時:風が変化
28日03時:350度から4ノットの風

福岡空港
TAF RJFF 261107Z 2612/2718 15006KT 9999 FEW015 SCT025
BECMG 2700/2703 30008KT
BECMG 2712/2715 15005KT
日本時間26日21時-27日09時:150度から6ノットの風
09-12時:風が変化
12-21時:300度から8ノットの風
21-24時:風が変化
28日00-03時:150度から5ノットの風

那覇空港
TAF ROAH 261107Z 2612/2718 02008KT 9999 FEW015 SCT025
日本時間26日21時-28日03時:020度から8ノットの風

石垣空港
TAF ROIG 261110Z 2612/2718 03006KT 9999 FEW015 SCT030
BECMG 2617/2619 19006KT
TEMPO 2703/2706 3000 SHRA FEW008 BKN015 FEW025CB
日本時間26日21時-26日02時:030度から6ノットの風
02-04時:風が変化
04時-28日03時:190度から6ノットの風

但し、27日12-15時の間:ときどき

マウイのカフルイ空港
PHOG 261120Z 2612/2712 14005KT P6SM FEW025 SCT040
FM262000 02011KT P6SM VCSH SCT025 BKN045
FM270400 VRB06KT P6SM VCSH SCT025 BKN045 AMD LTD TO VIS AND WIND TIL 261600
ハワイ時間26日02-10時:140度から5ノットの風
10-18時:020度から11ノットの風
18時-27日02時:風向不定6ノットの風

サイパン空港
TAF PGSN 261123Z 2612/2712 VRB04KT P6SM VCSH FEW020 SCT040 SCT120
マリアナ時間26日22時-27日12時:風向不定4ノットの風
12-22時:020度から6ノットの風

コメント
この記事をはてなブックマークに追加

8/25-8/27の航空気象通報

2015年08月26日 00時23分28秒 | TAF

羽田空港
TAF AMD RJTT 251406Z 2514/2618 05013KT 9999 FEW015 BKN020
BECMG 2517/2519 09018KT
TEMPO 2600/2603 34020G30KT 2000 SHRA BR FEW005 BKN008
BECMG 2600/2603 34008KT
日本時間25日21時-26日02時:050度から13ノットの風
02-04時:風が変化
04-09時:090度から18ノットの風
但し、09-12時の間:ときどき340度から20ノット、突風30ノット
09-12時:風が変化
12時-27日03時:340度から8ノットの風

但し、26日09-12時の間:ときどき

静岡空港
TAF RJNS 251105Z 2512/2618 06010KT 6000 -SHRA FEW004 BKN008
TEMPO 2512/2514 06015G28KT 4000 -SHRA BR
TEMPO 2514/2522 2000 SHRA BR FEW002 BKN004
BECMG 2600/2603 22010KT FEW010 BKN020
BECMG 2615/2618 31004KT
日本時間25日21時-26日09時:060度から10ノットの風
但し、25日21-23時の間:ときどき060度から15ノット、突風28ノット
09-12時:風が変化
12-24時:220度から10ノットの風
27日00-03時:風が変化
03時:310度から4ノットの風

福岡空港
TAF RJFF 251116Z 2512/2618 27008KT 9999 -SHRA FEW010 SCT025 BKN035
TEMPO 2512/2515 4000 SHRA BR FEW005 BKN008 BKN015
BECMG 2609/2612 16005KT
日本時間25日21時-26日18時:270度から8ノットの風
18-21時:風が変化
21時-27日03時:160度から5ノットの風

那覇空港
TAF ROAH 251106Z 2512/2618 26008KT 9999 FEW010 SCT030
BECMG 2521/2523 32006KT
TEMPO 2609/2612 3000 SHRA FEW008 BKN015 FEW025CB
日本時間25日21時-26日06時:260度から8ノットの風
06-08時:風が変化
08時-27日03時:320度から6ノットの風

但し、26日18-21時の間:ときどき

石垣空港
TAF ROIG 251110Z 2512/2618 08008KT 9999 FEW010 BKN030
BECMG 2516/2518 16004KT
TEMPO 2518/2521 3000 SHRA SCT008 BKN015 FEW020CB
BECMG 2520/2522 24015KT
BECMG 2600/2603 34008KT
日本時間25日21時-26日01時:080度から8ノットの風
01-03時:風が変化
03-05時:160度から4ノットの風
05-07時:風が変化
07-09時:240度から15ノットの風
09-12時:風が変化
12時-27日03時:340度から8ノットの風

但し、26日03-06時の間:ときどき

マウイのカフルイ空港
PHOG 251120Z 2512/2612 19007KT P6SM VCSH FEW015 SCT025 BKN045
FM252000 34010KT P6SM VCSH SCT020 BKN045
FM260600 VRB05KT P6SM VCSH SCT020 BKN045 AMD LTD TO VIS AND WIND TIL 251600
ハワイ時間25日02-10時:190度から7ノットの風
10-20時:340度から10ノットの風
20時-26日02時:風向不定5ノットの風

サイパン空港
TAF PGSN 251120Z 2512/2612 VRB04KT P6SM VCSH FEW020 SCT040
FM260200 02006KT P6SM VCSH FEW016 SCT040 SCT120
マリアナ時間25日22時-26日12時:風向不定4ノットの風
12-22時:020度から6ノットの風

コメント
この記事をはてなブックマークに追加